createdAt,value
2022-10-06T03:39:02.632Z,17.98
2022-10-06T03:42:05.897Z,20.37
2022-10-06T03:45:08.972Z,16.48
2022-10-06T03:48:11.847Z,14.95
2022-10-06T03:51:24.208Z,15.23
2022-10-06T03:54:26.823Z,16.17
2022-10-06T03:57:29.214Z,17.98
2022-10-06T04:00:31.958Z,20.27
2022-10-06T04:03:35.421Z,14.95
2022-10-06T04:06:40.136Z,21.70
2022-10-06T04:09:43.181Z,14.95
2022-10-06T04:12:46.345Z,21.00
2022-10-06T04:15:49.189Z,17.70
2022-10-06T04:18:54.463Z,19.87
2022-10-06T04:21:57.071Z,16.48
2022-10-06T04:24:59.516Z,19.23
2022-10-06T04:28:02.328Z,15.13
2022-10-06T04:31:11.601Z,13.07
2022-10-06T04:34:15.871Z,18.48
2022-10-06T04:37:18.956Z,15.60
2022-10-06T04:40:21.724Z,16.40
2022-10-06T04:43:25.008Z,16.70
2022-10-06T04:46:44.910Z,16.75
2022-10-06T04:49:47.954Z,16.65
2022-10-06T04:52:52.943Z,15.30
2022-10-06T04:56:12.717Z,15.52
2022-10-06T04:59:16.125Z,18.35
2022-10-06T05:02:20.522Z,17.03
2022-10-06T05:05:24.069Z,27.75
2022-10-06T05:08:27.842Z,19.52
2022-10-06T05:11:31.853Z,18.58
2022-10-06T05:17:36.827Z,20.48
2022-10-06T05:23:46.021Z,16.58
2022-10-06T05:26:49.056Z,19.67
2022-10-06T05:29:52.272Z,20.67
2022-10-06T05:32:54.617Z,18.80
2022-10-06T05:35:59.703Z,15.85
2022-10-06T05:39:03.766Z,17.92
2022-10-06T05:42:08.453Z,15.35
2022-10-06T05:45:11.326Z,19.23
2022-10-06T05:48:13.982Z,20.67
2022-10-06T05:51:18.317Z,16.62
2022-10-06T05:54:21.010Z,19.87
2022-10-06T05:57:24.017Z,13.07
2022-10-06T06:00:26.764Z,21.47
2022-10-06T06:03:29.379Z,17.12
2022-10-06T06:06:37.081Z,15.77
2022-10-06T06:09:40.276Z,23.60
2022-10-06T06:12:42.744Z,24.40
2022-10-06T06:16:01.923Z,18.37
2022-10-06T06:19:06.014Z,26.37
2022-10-06T06:22:09.298Z,19.98
2022-10-06T06:25:12.946Z,18.65
2022-10-06T06:28:16.163Z,37.45
2022-10-06T06:31:26.531Z,22.73
2022-10-06T06:34:30.090Z,18.98
2022-10-06T06:37:33.393Z,21.60
2022-10-06T06:40:40.677Z,18.75
2022-10-06T06:43:43.861Z,17.83
2022-10-06T06:46:49.269Z,16.58
2022-10-06T06:49:52.734Z,17.65
2022-10-06T06:52:55.463Z,14.90
2022-10-06T06:55:58.026Z,22.55
2022-10-06T06:59:02.296Z,17.40
2022-10-06T07:02:04.874Z,20.20
2022-10-06T07:05:08.303Z,16.55
2022-10-06T07:08:11.845Z,14.93
2022-10-06T07:11:17.559Z,17.02
2022-10-06T07:14:22.527Z,18.00
2022-10-06T07:17:43.681Z,21.62
2022-10-06T07:21:04.939Z,23.42
2022-10-06T07:24:27.777Z,17.15
2022-10-06T07:27:32.171Z,23.87
2022-10-06T07:30:40.459Z,23.73
2022-10-06T07:33:43.701Z,20.62
2022-10-06T07:36:48.657Z,21.40
2022-10-06T07:39:51.730Z,23.92
2022-10-06T07:42:54.477Z,25.15
2022-10-06T07:49:01.396Z,21.37
2022-10-06T07:52:04.340Z,27.17
2022-10-06T07:55:07.422Z,19.80
2022-10-06T07:58:22.432Z,19.65
2022-10-06T08:01:30.232Z,40.50
2022-10-06T08:04:33.096Z,24.58
2022-10-06T08:07:35.694Z,21.20
2022-10-06T08:10:38.581Z,24.05
2022-10-06T08:13:43.162Z,23.17
2022-10-06T08:16:46.165Z,23.23
2022-10-06T08:19:48.644Z,27.48
2022-10-06T08:22:51.286Z,19.33
2022-10-06T08:25:55.453Z,22.00
2022-10-06T08:28:59.737Z,22.13
2022-10-06T08:32:03.124Z,31.48
2022-10-06T08:35:05.879Z,21.67
2022-10-06T08:38:08.191Z,21.10
2022-10-06T08:41:25.272Z,21.45
2022-10-06T08:44:39.110Z,22.20
2022-10-06T08:47:50.713Z,28.52
2022-10-06T08:51:19.734Z,22.10
2022-10-06T08:54:33.578Z,21.62
2022-10-06T08:57:55.355Z,25.58
2022-10-06T09:01:14.219Z,20.77
2022-10-06T09:04:28.142Z,22.65
2022-10-06T09:08:07.625Z,21.52
2022-10-06T09:11:22.005Z,17.77
2022-10-06T09:14:37.511Z,20.50
2022-10-06T09:17:50.172Z,23.62
2022-10-06T09:21:02.826Z,23.23
2022-10-06T09:24:15.316Z,19.42
2022-10-06T09:27:24.317Z,23.10
2022-10-06T09:30:27.276Z,20.62
2022-10-06T09:37:03.229Z,15.88
2022-10-06T09:40:44.728Z,19.23
2022-10-06T09:43:57.361Z,15.63
2022-10-06T09:47:00.005Z,16.62
2022-10-06T09:50:16.711Z,16.35
2022-10-06T09:53:21.598Z,16.45
2022-10-06T09:56:24.190Z,15.10
2022-10-06T09:59:39.083Z,16.00
2022-10-06T10:02:42.687Z,14.07
2022-10-06T10:09:14.724Z,17.35
2022-10-06T10:12:31.064Z,17.52
2022-10-06T10:15:48.495Z,19.33
2022-10-06T10:18:51.488Z,20.62
2022-10-06T10:21:57.940Z,18.27
2022-10-06T10:25:29.592Z,16.10
2022-10-06T10:28:52.100Z,17.50
2022-10-06T10:32:02.802Z,15.45
2022-10-06T10:35:28.344Z,15.38
2022-10-06T10:38:32.276Z,14.85
2022-10-06T10:41:44.032Z,16.77
2022-10-06T10:44:54.993Z,18.85
2022-10-06T10:47:59.457Z,14.68
2022-10-06T10:51:19.522Z,14.10
2022-10-06T10:54:26.703Z,15.27
2022-10-06T10:57:43.938Z,17.70
2022-10-06T11:00:53.935Z,12.77
2022-10-06T11:03:58.718Z,17.27
2022-10-06T11:07:16.947Z,15.93
2022-10-06T11:10:50.386Z,13.40
2022-10-06T11:13:56.505Z,12.52
2022-10-06T11:17:13.297Z,13.75
2022-10-06T11:20:47.072Z,14.65
2022-10-06T11:23:57.331Z,12.98
2022-10-06T11:27:17.555Z,17.67
2022-10-06T11:30:26.368Z,17.23
2022-10-06T11:33:45.686Z,16.40
2022-10-06T11:36:51.087Z,17.20
2022-10-06T11:40:25.653Z,15.43
2022-10-06T11:43:55.271Z,13.38
2022-10-06T11:47:36.301Z,13.38
2022-10-06T11:50:42.276Z,16.42
2022-10-06T11:53:45.071Z,17.87
2022-10-06T11:56:47.938Z,16.95
2022-10-06T11:59:56.280Z,8.73
2022-10-06T12:03:33.528Z,13.38
2022-10-06T12:06:42.481Z,17.58
2022-10-06T12:09:46.176Z,11.77
2022-10-06T12:13:06.116Z,11.93
2022-10-06T12:20:13.204Z,12.10
2022-10-06T12:23:38.937Z,10.77
2022-10-06T12:26:44.553Z,11.90
2022-10-06T12:29:54.453Z,11.27
2022-10-06T12:32:59.004Z,13.00
2022-10-06T12:36:03.393Z,10.23
2022-10-06T12:39:23.737Z,11.18
2022-10-06T12:42:31.244Z,10.18
2022-10-06T12:45:34.446Z,8.98
2022-10-06T12:48:53.655Z,7.75
2022-10-06T12:51:59.677Z,11.00
2022-10-06T12:55:14.540Z,9.57
2022-10-06T12:58:28.734Z,11.85
2022-10-06T13:01:32.690Z,10.32
2022-10-06T13:04:44.886Z,18.98
2022-10-06T13:08:04.569Z,9.38
2022-10-06T13:11:29.797Z,9.98
2022-10-06T13:14:32.096Z,10.70
2022-10-06T13:17:35.314Z,9.27
2022-10-06T13:20:45.896Z,11.05
2022-10-06T13:23:49.479Z,8.43
2022-10-06T13:26:52.581Z,8.27
2022-10-06T13:30:12.566Z,9.50
2022-10-06T13:33:15.547Z,9.38
2022-10-06T13:36:19.716Z,9.52
2022-10-06T13:39:24.555Z,8.13
2022-10-06T13:42:28.814Z,12.75
2022-10-06T13:45:31.775Z,9.85
2022-10-06T13:48:34.596Z,10.20
2022-10-06T13:51:37.096Z,9.73
2022-10-06T13:55:00.485Z,11.75
2022-10-06T14:01:13.039Z,10.15
2022-10-06T14:04:20.787Z,14.87
2022-10-06T14:07:23.059Z,8.23
2022-10-06T14:10:37.795Z,8.80
2022-10-06T14:13:52.083Z,11.60
2022-10-06T14:16:55.250Z,12.05
2022-10-06T14:23:00.524Z,11.90
2022-10-06T14:26:02.882Z,10.37
2022-10-06T14:29:05.641Z,9.75
2022-10-06T14:32:13.210Z,9.57
2022-10-06T14:35:15.740Z,8.35
2022-10-06T14:38:19.215Z,9.48
2022-10-06T14:41:24.958Z,15.48
2022-10-06T14:44:27.264Z,11.20
2022-10-06T14:47:31.283Z,15.73
2022-10-06T14:50:35.021Z,13.38
2022-10-06T14:53:39.465Z,9.10
2022-10-06T14:56:42.402Z,10.75
2022-10-06T14:59:45.227Z,13.90
2022-10-06T15:02:48.094Z,8.65
2022-10-06T15:09:11.940Z,12.50
2022-10-06T15:15:17.122Z,7.32
2022-10-06T15:18:19.723Z,8.48
2022-10-06T15:21:23.733Z,9.67
2022-10-06T15:24:26.328Z,12.43
2022-10-06T15:27:47.033Z,9.90
2022-10-06T15:30:50.615Z,9.23
2022-10-06T15:33:54.775Z,16.00
2022-10-06T15:36:58.394Z,7.25
2022-10-06T15:40:01.642Z,8.63
2022-10-06T15:43:04.218Z,6.93
2022-10-06T15:46:06.571Z,11.10
2022-10-06T15:49:10.780Z,16.45
2022-10-06T15:52:13.655Z,8.82
